Terminal Aerodrome Forecast
Issued by NWS

Home | Current Version | Previous Version | Text Only | Print | Product List | Glossary On
Versions: 1 2 3 4 5 6 7 8 9 10 11 12 13 14 15 16 17 18 19 20 21
000
FTUS46 KHNX 250539
TAFBFL
TAF
KBFL 250539Z 2506/2606 25004KT 0SM FG VV001
     FM251400 VRB04KT 1/2SM FG OVC002
     FM252100 VRB03KT 2SM BR BKN004=

USA.gov is the U.S. government's official web portal to all federal, state and local government web resources and services.